createdAt,value
2023-04-15T00:00:00.298Z,4.8
2023-04-15T00:10:00.208Z,4.8
2023-04-15T00:20:00.224Z,4.8
2023-04-15T00:30:00.251Z,4.9
2023-04-15T00:40:00.216Z,4.9
2023-04-15T00:50:00.218Z,4.9
2023-04-15T01:00:00.221Z,4.9
2023-04-15T01:10:00.273Z,5.0
2023-04-15T01:20:00.302Z,5.1
2023-04-15T01:30:00.256Z,5.2
2023-04-15T01:40:00.297Z,5.3
2023-04-15T01:50:00.238Z,5.3
2023-04-15T02:00:00.228Z,5.2
2023-04-15T02:10:00.236Z,5.2
2023-04-15T02:20:00.297Z,5.2
2023-04-15T02:30:00.343Z,5.2
2023-04-15T02:40:00.221Z,5.3
2023-04-15T02:50:00.225Z,5.3
2023-04-15T03:00:00.259Z,5.4
2023-04-15T03:10:00.213Z,5.5
2023-04-15T03:20:00.289Z,5.6
2023-04-15T03:30:00.242Z,5.7
2023-04-15T03:40:00.223Z,5.6
2023-04-15T03:50:00.225Z,5.6
2023-04-15T04:00:00.233Z,5.7
2023-04-15T04:10:00.241Z,5.8
2023-04-15T04:20:00.248Z,6.0
2023-04-15T04:30:00.331Z,6.1
2023-04-15T04:40:00.237Z,6.3
2023-04-15T04:50:00.236Z,6.4
2023-04-15T05:00:00.225Z,6.5
2023-04-15T05:10:00.237Z,6.7
2023-04-15T05:20:00.233Z,6.8
2023-04-15T05:30:00.258Z,6.9
2023-04-15T05:40:00.228Z,6.8
2023-04-15T05:50:00.233Z,7.0
2023-04-15T06:00:00.262Z,7.2
2023-04-15T06:10:00.229Z,7.4
2023-04-15T06:20:00.240Z,7.4
2023-04-15T06:30:00.296Z,8.0
2023-04-15T06:40:00.259Z,9.2
2023-04-15T06:50:00.264Z,10.2
2023-04-15T07:00:00.232Z,9.6
2023-04-15T07:10:00.244Z,9.8
2023-04-15T07:20:00.221Z,9.6
2023-04-15T07:30:00.248Z,10.1
2023-04-15T07:40:00.257Z,10.5
2023-04-15T07:50:00.240Z,10.6
2023-04-15T08:00:00.219Z,10.4
2023-04-15T08:10:00.218Z,11.6
2023-04-15T08:20:00.226Z,12.4
2023-04-15T08:30:02.112Z,11.1
2023-04-15T08:40:00.234Z,10.2
2023-04-15T08:50:00.240Z,10.4
2023-04-15T09:00:01.361Z,11.7
2023-04-15T09:10:00.243Z,14.3
2023-04-15T09:20:00.219Z,13.9
2023-04-15T09:30:00.249Z,12.2
2023-04-15T09:40:00.235Z,11.4
2023-04-15T09:50:00.433Z,11.7
2023-04-15T10:00:00.257Z,11.1
2023-04-15T10:10:00.227Z,10.1
2023-04-15T10:20:00.231Z,10.3
2023-04-15T10:30:00.240Z,10.2
2023-04-15T10:40:00.207Z,10.7
2023-04-15T10:50:00.225Z,11.3
2023-04-15T11:00:00.278Z,11.1
2023-04-15T11:10:00.241Z,10.6
2023-04-15T11:20:00.238Z,10.8
2023-04-15T11:30:00.228Z,10.7
2023-04-15T11:40:00.232Z,11.1
2023-04-15T11:50:00.283Z,11.8
2023-04-15T12:00:00.237Z,12.0
2023-04-15T12:10:00.224Z,12.1
2023-04-15T12:20:00.211Z,11.1
2023-04-15T12:30:00.241Z,11.0
2023-04-15T12:40:00.235Z,12.5
2023-04-15T12:50:00.240Z,11.5
2023-04-15T13:00:00.216Z,11.2
2023-04-15T13:10:00.227Z,11.9
2023-04-15T13:20:00.231Z,13.1
2023-04-15T13:30:00.333Z,12.3
2023-04-15T13:40:00.318Z,11.5
2023-04-15T13:50:00.312Z,12.2
2023-04-15T14:00:00.253Z,11.7
2023-04-15T14:10:00.244Z,11.4
2023-04-15T14:20:00.265Z,11.6
2023-04-15T14:30:00.251Z,12.3
2023-04-15T14:40:00.290Z,12.2
2023-04-15T14:50:00.233Z,12.1
2023-04-15T15:00:00.300Z,12.1
2023-04-15T15:10:00.244Z,11.8
2023-04-15T15:20:00.307Z,11.4
2023-04-15T15:30:00.381Z,9.8
2023-04-15T15:40:00.277Z,9.7
2023-04-15T15:50:00.289Z,10.0
2023-04-15T16:00:11.145Z,10.2
2023-04-15T16:10:00.230Z,10.2
2023-04-15T16:20:01.160Z,10.0
2023-04-15T16:30:00.259Z,9.8
2023-04-15T16:40:00.281Z,9.5
2023-04-15T16:50:00.212Z,9.2
2023-04-15T17:00:00.262Z,8.9
2023-04-15T17:10:00.234Z,8.7
2023-04-15T17:20:00.251Z,8.5
2023-04-15T17:30:00.277Z,8.2
2023-04-15T17:40:00.263Z,7.9
2023-04-15T17:50:00.221Z,7.7
2023-04-15T18:00:00.242Z,7.5
2023-04-15T18:10:00.220Z,7.0
2023-04-15T18:20:00.243Z,6.7
2023-04-15T18:30:00.338Z,6.3
2023-04-15T18:40:00.231Z,6.0
2023-04-15T18:50:00.237Z,6.0
2023-04-15T19:00:00.260Z,5.9
2023-04-15T19:10:00.229Z,5.9
2023-04-15T19:20:00.236Z,5.8
2023-04-15T19:30:00.257Z,5.8
2023-04-15T19:40:00.259Z,5.8
2023-04-15T19:50:00.239Z,5.7
2023-04-15T20:00:00.264Z,5.5
2023-04-15T20:10:00.360Z,5.6
2023-04-15T20:20:00.310Z,5.6
2023-04-15T20:30:00.279Z,5.9
2023-04-15T20:40:00.289Z,6.0
2023-04-15T20:50:00.230Z,6.1
2023-04-15T21:00:00.230Z,6.2
2023-04-15T21:10:00.255Z,6.2
2023-04-15T21:20:00.230Z,6.2
2023-04-15T21:30:00.324Z,6.2
2023-04-15T21:40:00.268Z,6.1
2023-04-15T21:50:00.224Z,6.2
2023-04-15T22:00:00.240Z,6.2
2023-04-15T22:10:00.299Z,6.2
2023-04-15T22:20:00.225Z,6.4
2023-04-15T22:30:00.268Z,6.3
2023-04-15T22:40:00.284Z,6.1
2023-04-15T22:50:00.250Z,5.8
2023-04-15T23:00:00.220Z,6.0
2023-04-15T23:10:00.246Z,5.6
2023-04-15T23:20:00.235Z,5.6
2023-04-15T23:30:00.290Z,5.8
2023-04-15T23:40:00.230Z,5.7
2023-04-15T23:50:00.245Z,5.5
